createdAt,value
2019-02-04T00:01:22.287Z,94881.16
2019-02-04T00:03:56.296Z,94887.25
2019-02-04T00:06:29.487Z,94882.95
2019-02-04T00:09:04.336Z,94898.66
2019-02-04T00:11:38.215Z,94894.98
2019-02-04T00:14:12.142Z,94891.17
2019-02-04T00:16:45.512Z,94893.95
2019-02-04T00:19:19.010Z,94900.27
2019-02-04T00:21:52.331Z,94911.91
2019-02-04T00:24:25.698Z,94909.47
2019-02-04T00:26:59.223Z,94903.02
2019-02-04T00:29:32.381Z,94910.95
2019-02-04T00:32:05.632Z,94918.42
2019-02-04T00:34:38.570Z,94917.67
2019-02-04T00:37:11.852Z,94922.56
2019-02-04T00:39:44.887Z,94923.53
2019-02-04T00:42:17.999Z,94923.55
2019-02-04T00:44:51.298Z,94925.64
2019-02-04T00:47:24.849Z,94925.14
2019-02-04T00:49:57.835Z,94919.91
2019-02-04T00:52:30.759Z,94923.41
2019-02-04T00:55:03.526Z,94926.97
2019-02-04T00:57:36.552Z,94926.37
2019-02-04T01:00:15.348Z,94937.95
2019-02-04T01:02:48.385Z,94937.59
2019-02-04T01:05:22.572Z,94934.20
2019-02-04T01:07:55.829Z,94929.91
2019-02-04T01:10:29.607Z,94940.47
2019-02-04T01:13:02.586Z,94935.96
2019-02-04T01:15:35.415Z,94933.17
2019-02-04T01:18:08.548Z,94926.31
2019-02-04T01:20:41.780Z,94926.13
2019-02-04T01:23:15.081Z,94943.86
2019-02-04T01:25:47.979Z,94930.09
2019-02-04T01:28:21.098Z,94919.15
2019-02-04T01:30:54.180Z,94914.62
2019-02-04T01:33:27.390Z,94907.03
2019-02-04T01:36:00.487Z,94918.75
2019-02-04T01:38:33.688Z,94938.66
2019-02-04T01:41:06.957Z,94931.24
2019-02-04T01:43:41.230Z,94935.94
2019-02-04T01:46:14.570Z,94947.02
2019-02-04T01:48:47.848Z,94933.02
2019-02-04T01:51:20.773Z,94935.78
2019-02-04T01:53:53.763Z,94936.12
2019-02-04T01:56:26.574Z,94945.21
2019-02-04T01:58:59.446Z,94952.33
2019-02-04T02:01:32.274Z,94965.25
2019-02-04T02:04:05.693Z,94977.66
2019-02-04T02:06:38.565Z,94969.16
2019-02-04T02:09:31.091Z,94972.17
2019-02-04T02:12:03.994Z,94980.34
2019-02-04T02:14:36.942Z,94984.02
2019-02-04T02:17:10.065Z,94983.27
2019-02-04T02:19:42.957Z,94977.17
2019-02-04T02:22:16.007Z,94972.63
2019-02-04T02:24:48.743Z,94980.94
2019-02-04T02:27:21.618Z,94977.81
2019-02-04T02:29:54.948Z,94997.29
2019-02-04T02:32:27.665Z,94994.16
2019-02-04T02:35:00.732Z,95003.49
2019-02-04T02:37:33.723Z,94998.69
2019-02-04T02:40:10.559Z,94992.66
2019-02-04T02:42:43.461Z,94996.55
2019-02-04T02:45:16.676Z,94996.57
2019-02-04T02:47:49.816Z,94997.19
2019-02-04T02:50:23.857Z,95001.73
2019-02-04T02:52:57.346Z,95005.97
2019-02-04T02:55:30.643Z,95006.98
2019-02-04T02:58:03.811Z,95008.55
2019-02-04T03:00:36.770Z,95008.97
2019-02-04T03:03:09.562Z,95007.92
2019-02-04T03:05:42.710Z,95012.22
2019-02-04T03:08:16.201Z,95010.31
2019-02-04T03:10:49.305Z,95012.69
2019-02-04T03:13:22.444Z,95024.97
2019-02-04T03:15:55.307Z,95025.31
2019-02-04T03:18:28.267Z,95026.47
2019-02-04T03:21:01.384Z,95022.33
2019-02-04T03:23:34.466Z,95009.80
2019-02-04T03:26:07.590Z,95013.23
2019-02-04T03:28:41.060Z,95019.73
2019-02-04T03:31:14.268Z,95019.75
2019-02-04T03:33:48.813Z,95013.43
2019-02-04T03:36:21.823Z,95018.52
2019-02-04T03:38:56.272Z,95021.70
2019-02-04T03:41:29.347Z,95024.22
2019-02-04T03:44:02.473Z,95023.45
2019-02-04T03:46:35.563Z,95021.30
2019-02-04T03:49:08.484Z,95025.71
2019-02-04T03:51:41.729Z,95022.38
2019-02-04T03:54:14.602Z,95017.83
2019-02-04T03:56:47.593Z,95028.52
2019-02-04T03:59:20.538Z,95029.22
2019-02-04T04:01:54.012Z,95025.59
2019-02-04T04:04:28.501Z,95030.37
2019-02-04T04:07:01.705Z,95031.55
2019-02-04T04:09:34.589Z,95032.40
2019-02-04T04:12:07.645Z,95037.62
2019-02-04T04:14:41.096Z,95039.90
2019-02-04T04:17:14.236Z,95045.61
2019-02-04T04:19:47.387Z,95040.24
2019-02-04T04:22:20.435Z,95036.93
2019-02-04T04:24:53.480Z,95032.20
2019-02-04T04:27:26.642Z,95025.31
2019-02-04T04:29:59.551Z,95025.48
2019-02-04T04:32:32.636Z,95037.42
2019-02-04T04:35:06.578Z,95038.11
2019-02-04T04:37:39.731Z,95041.49
2019-02-04T04:40:13.011Z,95043.41
2019-02-04T04:42:46.555Z,95049.34
2019-02-04T04:45:22.063Z,95050.38
2019-02-04T04:47:55.548Z,95052.38
2019-02-04T04:50:28.857Z,95052.19
2019-02-04T04:53:01.967Z,95059.19
2019-02-04T04:55:34.883Z,95054.30
2019-02-04T04:58:08.016Z,95053.36
2019-02-04T05:00:41.552Z,95055.28
2019-02-04T05:03:15.276Z,95053.94
2019-02-04T05:05:48.499Z,95054.75
2019-02-04T05:08:21.607Z,95064.25
2019-02-04T05:10:55.278Z,95066.89
2019-02-04T05:13:28.255Z,95074.43
2019-02-04T05:16:01.785Z,95079.88
2019-02-04T05:18:38.313Z,95079.35
2019-02-04T05:21:09.878Z,95083.50
2019-02-04T05:23:43.190Z,95092.23
2019-02-04T05:26:15.967Z,95095.58
2019-02-04T05:28:53.160Z,95090.69
2019-02-04T05:31:26.299Z,95095.78
2019-02-04T05:33:59.414Z,95092.40
2019-02-04T05:36:32.542Z,95088.66
2019-02-04T05:39:07.886Z,95086.91
2019-02-04T05:41:43.001Z,95088.73
2019-02-04T05:44:15.988Z,95087.67
2019-02-04T05:46:52.160Z,95090.41
2019-02-04T05:49:44.383Z,95093.25
2019-02-04T05:52:17.612Z,95099.77
2019-02-04T05:54:51.065Z,95098.30
2019-02-04T05:57:24.057Z,95098.53
2019-02-04T05:59:57.048Z,95106.31
2019-02-04T06:02:30.390Z,95109.00
2019-02-04T06:05:03.526Z,95111.12
2019-02-04T06:07:36.670Z,95119.59
2019-02-04T06:10:10.457Z,95118.08
2019-02-04T06:12:43.594Z,95126.30
2019-02-04T06:15:16.717Z,95133.39
2019-02-04T06:17:50.003Z,95125.41
2019-02-04T06:20:24.154Z,95128.38
2019-02-04T06:22:58.479Z,95130.81
2019-02-04T06:25:31.481Z,95141.53
2019-02-04T06:28:06.344Z,95150.42
2019-02-04T06:30:38.980Z,95160.56
2019-02-04T06:33:12.124Z,95159.17
2019-02-04T06:35:45.408Z,95157.76
2019-02-04T06:38:18.782Z,95158.84
2019-02-04T06:40:52.023Z,95161.73
2019-02-04T06:43:25.050Z,95165.50
2019-02-04T06:45:58.210Z,95169.83
2019-02-04T06:48:31.092Z,95170.92
2019-02-04T06:51:04.111Z,95173.20
2019-02-04T06:53:37.081Z,95176.59
2019-02-04T06:56:10.351Z,95194.84
2019-02-04T06:58:44.638Z,95201.39
2019-02-04T07:01:17.462Z,95211.38
2019-02-04T07:03:50.767Z,95210.38
2019-02-04T07:06:25.023Z,95211.38
2019-02-04T07:08:57.802Z,95206.95
2019-02-04T07:11:31.049Z,95206.67
2019-02-04T07:14:04.150Z,95200.09
2019-02-04T07:16:38.638Z,95205.11
2019-02-04T07:19:23.407Z,95208.66
2019-02-04T07:21:46.728Z,95209.72
2019-02-04T07:24:20.193Z,95219.75
2019-02-04T07:26:53.090Z,95231.22
2019-02-04T07:29:26.330Z,95237.95
2019-02-04T07:31:59.464Z,95239.17
2019-02-04T07:34:32.525Z,95235.63
2019-02-04T07:37:05.757Z,95240.90
2019-02-04T07:39:39.589Z,95245.27
2019-02-04T07:42:12.646Z,95247.08
2019-02-04T07:44:47.194Z,95250.47
2019-02-04T07:47:20.339Z,95248.55
2019-02-04T07:49:53.501Z,95243.17
2019-02-04T07:52:26.863Z,95241.25
2019-02-04T07:55:00.331Z,95244.18
2019-02-04T07:57:33.479Z,95242.06
2019-02-04T08:00:10.300Z,95244.66
2019-02-04T08:02:43.653Z,95252.55
2019-02-04T08:05:16.769Z,95250.50
2019-02-04T08:07:50.023Z,95249.44
2019-02-04T08:10:23.394Z,95248.70
2019-02-04T08:13:01.399Z,95244.42
2019-02-04T08:15:35.048Z,95246.09
2019-02-04T08:18:09.127Z,95248.14
2019-02-04T08:20:42.151Z,95251.58
2019-02-04T08:23:15.339Z,95255.60
2019-02-04T08:25:48.438Z,95261.93
2019-02-04T08:28:21.381Z,95257.94
2019-02-04T08:30:54.436Z,95261.52
2019-02-04T08:33:27.511Z,95256.55
2019-02-04T08:36:00.914Z,95255.03
2019-02-04T08:38:33.862Z,95257.22
2019-02-04T08:41:08.006Z,95258.11
2019-02-04T08:43:41.042Z,95261.66
2019-02-04T08:46:14.371Z,95263.46
2019-02-04T08:48:47.635Z,95257.44
2019-02-04T08:51:20.683Z,95260.19
2019-02-04T08:53:53.912Z,95259.72
2019-02-04T08:56:26.982Z,95261.03
2019-02-04T08:59:00.161Z,95264.36
2019-02-04T09:01:33.531Z,95265.56
2019-02-04T09:04:06.900Z,95261.69
2019-02-04T09:06:40.093Z,95261.70
2019-02-04T09:09:13.700Z,95256.94
2019-02-04T09:11:47.387Z,95258.23
2019-02-04T09:14:20.778Z,95251.75
2019-02-04T09:16:54.131Z,95254.92
2019-02-04T09:19:27.122Z,95247.28
2019-02-04T09:22:00.429Z,95247.83
2019-02-04T09:24:33.659Z,95242.30
2019-02-04T09:27:06.852Z,95241.84
2019-02-04T09:29:40.097Z,95240.55
2019-02-04T09:32:13.077Z,95233.89
2019-02-04T09:34:46.700Z,95235.05
2019-02-04T09:37:20.994Z,95233.53
2019-02-04T09:39:54.326Z,95227.59
2019-02-04T09:42:27.368Z,95229.36
2019-02-04T09:45:00.491Z,95232.38
2019-02-04T09:47:35.040Z,95230.15
2019-02-04T09:50:21.182Z,95225.95
2019-02-04T09:52:45.188Z,95227.53
2019-02-04T09:55:25.531Z,95231.84
2019-02-04T09:57:58.696Z,95236.54
2019-02-04T10:00:34.234Z,95228.09
2019-02-04T10:03:08.124Z,95219.27
2019-02-04T10:05:41.631Z,95211.07
2019-02-04T10:08:14.667Z,95216.14
2019-02-04T10:10:47.964Z,95208.72
2019-02-04T10:13:21.074Z,95197.86
2019-02-04T10:15:54.063Z,95197.88
2019-02-04T10:18:27.612Z,95197.16
2019-02-04T10:21:00.634Z,95186.19
2019-02-04T10:23:33.589Z,95190.47
2019-02-04T10:26:06.747Z,95196.72
2019-02-04T10:28:39.676Z,95194.75
2019-02-04T10:31:13.030Z,95191.45
2019-02-04T10:33:46.039Z,95189.42
2019-02-04T10:36:19.155Z,95187.59
2019-02-04T10:38:52.435Z,95195.95
2019-02-04T10:41:25.389Z,95194.28
2019-02-04T10:43:58.351Z,95188.85
2019-02-04T10:46:31.494Z,95194.62
2019-02-04T10:49:04.688Z,95186.33
2019-02-04T10:51:38.381Z,95184.06
2019-02-04T10:54:11.741Z,95177.27
2019-02-04T10:56:44.987Z,95172.16
2019-02-04T10:59:18.021Z,95177.30
2019-02-04T11:01:51.704Z,95180.70
2019-02-04T11:04:24.608Z,95174.22
2019-02-04T11:06:58.110Z,95177.25
2019-02-04T11:09:31.274Z,95178.28
2019-02-04T11:12:06.406Z,95178.64
2019-02-04T11:14:39.997Z,95176.19
2019-02-04T11:17:13.188Z,95172.73
2019-02-04T11:19:46.508Z,95170.94
2019-02-04T11:22:19.615Z,95168.58
2019-02-04T11:24:53.079Z,95169.27
2019-02-04T11:27:27.388Z,95169.11
2019-02-04T11:30:00.832Z,95167.47
2019-02-04T11:32:33.712Z,95169.45
2019-02-04T11:35:07.421Z,95174.45
2019-02-04T11:37:40.497Z,95169.11
2019-02-04T11:40:15.625Z,95167.19
2019-02-04T11:42:49.490Z,95168.90
2019-02-04T11:45:22.876Z,95172.69
2019-02-04T11:47:56.032Z,95174.73
2019-02-04T11:50:29.809Z,95172.27
2019-02-04T11:53:03.412Z,95174.36
2019-02-04T11:55:36.606Z,95175.51
2019-02-04T11:58:10.964Z,95172.47
2019-02-04T12:00:44.152Z,95162.75
2019-02-04T12:03:18.576Z,95167.29
2019-02-04T12:05:51.872Z,95162.69
2019-02-04T12:08:25.061Z,95161.07
2019-02-04T12:11:04.690Z,95159.70
2019-02-04T12:13:38.081Z,95145.02
2019-02-04T12:27:33.840Z,95137.52
2019-02-04T12:30:10.031Z,95134.32
2019-02-04T12:32:43.190Z,95126.25
2019-02-04T12:35:16.728Z,95125.17
2019-02-04T12:37:50.331Z,95125.13
2019-02-04T12:40:23.777Z,95115.55
2019-02-04T12:42:57.306Z,95116.41
2019-02-04T12:45:33.942Z,95117.16
2019-02-04T12:48:08.107Z,95122.71
2019-02-04T12:50:41.021Z,95124.78
2019-02-04T12:53:14.544Z,95124.31
2019-02-04T12:55:48.066Z,95126.27
2019-02-04T12:58:22.465Z,95130.52
2019-02-04T13:00:55.507Z,95123.65
2019-02-04T13:03:28.748Z,95127.39
2019-02-04T13:06:03.253Z,95119.47
2019-02-04T13:08:36.383Z,95123.47
2019-02-04T13:11:09.523Z,95121.44
2019-02-04T13:13:42.402Z,95126.36
2019-02-04T13:16:15.739Z,95127.27
2019-02-04T13:18:48.862Z,95127.67
2019-02-04T13:21:21.988Z,95128.62
2019-02-04T13:23:55.160Z,95131.88
2019-02-04T13:26:28.933Z,95136.44
2019-02-04T13:29:02.130Z,95129.30
2019-02-04T13:31:35.205Z,95131.41
2019-02-04T13:34:08.749Z,95131.33
2019-02-04T13:36:42.419Z,95130.32
2019-02-04T13:39:15.936Z,95128.19
2019-02-04T13:41:48.883Z,95124.90
2019-02-04T13:44:22.720Z,95128.21
2019-02-04T13:46:56.339Z,95126.16
2019-02-04T13:49:29.223Z,95127.30
2019-02-04T13:52:02.577Z,95126.95
2019-02-04T13:54:35.757Z,95132.28
2019-02-04T13:57:09.349Z,95133.86
2019-02-04T13:59:42.650Z,95133.11
2019-02-04T14:02:15.985Z,95136.69
2019-02-04T14:04:49.006Z,95140.90
2019-02-04T14:07:21.917Z,95135.32
2019-02-04T14:09:59.010Z,95141.17
2019-02-04T14:12:30.809Z,95138.19
2019-02-04T14:15:03.760Z,95135.16
2019-02-04T14:17:36.659Z,95135.62
2019-02-04T14:20:13.451Z,95129.95
2019-02-04T14:22:47.063Z,95143.03
2019-02-04T14:25:20.469Z,95138.68
2019-02-04T14:27:53.844Z,95140.35
2019-02-04T14:30:31.314Z,95139.88
2019-02-04T14:33:05.074Z,95140.33
2019-02-04T14:35:38.660Z,95139.47
2019-02-04T14:38:12.094Z,95136.76
2019-02-04T14:40:45.229Z,95139.59
2019-02-04T14:43:30.215Z,95138.28
2019-02-04T14:47:01.398Z,95134.35
2019-02-04T14:50:16.300Z,95123.95
2019-02-04T14:53:46.420Z,95124.39
2019-02-04T14:57:20.909Z,95123.45
2019-02-04T15:00:40.933Z,95122.63
2019-02-04T15:03:48.757Z,95119.76
2019-02-04T15:07:35.609Z,95126.31
2019-02-04T15:11:05.306Z,95131.45
2019-02-04T15:14:47.533Z,95135.27
2019-02-04T15:18:20.095Z,95129.03
2019-02-04T15:21:34.072Z,95138.10
2019-02-04T15:24:32.048Z,95152.22
2019-02-04T15:28:00.304Z,95150.75
2019-02-04T15:30:52.157Z,95154.40
2019-02-04T15:33:45.252Z,95152.43
2019-02-04T15:36:58.531Z,95157.19
2019-02-04T15:40:18.574Z,95169.80
2019-02-04T15:44:07.456Z,95170.66
2019-02-04T15:46:52.829Z,95180.30
2019-02-04T15:50:42.593Z,95182.80
2019-02-04T15:53:18.648Z,95187.28
2019-02-04T15:55:51.722Z,95185.85
2019-02-04T15:58:25.311Z,95185.03
2019-02-04T16:00:59.732Z,95189.11
2019-02-04T16:03:33.068Z,95190.97
2019-02-04T16:06:06.361Z,95193.36
2019-02-04T16:08:40.622Z,95197.98
2019-02-04T16:11:14.216Z,95196.09
2019-02-04T16:13:47.135Z,95203.12
2019-02-04T16:16:20.321Z,95205.98
2019-02-04T16:18:53.392Z,95199.97
2019-02-04T16:21:26.587Z,95203.30
2019-02-04T16:23:59.899Z,95202.73
2019-02-04T16:26:33.290Z,95211.95
2019-02-04T16:29:06.626Z,95207.84
2019-02-04T16:31:39.478Z,95209.20
2019-02-04T16:34:12.731Z,95216.66
2019-02-04T16:36:51.365Z,95224.67
2019-02-04T16:39:25.865Z,95227.02
2019-02-04T16:41:59.358Z,95233.52
2019-02-04T16:44:32.552Z,95231.09
2019-02-04T16:47:06.153Z,95238.63
2019-02-04T16:49:39.195Z,95242.52
2019-02-04T16:52:14.804Z,95245.14
2019-02-04T16:54:47.952Z,95246.31
2019-02-04T16:57:25.890Z,95246.75
2019-02-04T17:00:09.428Z,95245.97
2019-02-04T17:02:53.000Z,95247.80
2019-02-04T17:05:33.262Z,95240.34
2019-02-04T17:08:12.778Z,95245.02
2019-02-04T17:10:52.458Z,95248.64
2019-02-04T17:13:33.555Z,95254.56
2019-02-04T17:16:13.504Z,95255.18
2019-02-04T17:18:52.425Z,95261.56
2019-02-04T17:21:31.125Z,95264.79
2019-02-04T17:24:10.083Z,95266.16
2019-02-04T17:26:49.905Z,95274.06
2019-02-04T17:29:29.547Z,95272.09
2019-02-04T17:32:08.551Z,95276.45
2019-02-04T17:34:47.344Z,95277.69
2019-02-04T17:37:24.969Z,95288.44
2019-02-04T17:40:04.267Z,95284.23
2019-02-04T17:42:45.676Z,95288.15
2019-02-04T17:45:26.023Z,95292.64
2019-02-04T17:48:07.983Z,95289.84
2019-02-04T17:50:46.910Z,95292.05
2019-02-04T17:53:33.876Z,95286.79
2019-02-04T17:56:04.931Z,95289.86
2019-02-04T17:58:43.983Z,95291.12
2019-02-04T18:01:21.335Z,95297.30
2019-02-04T18:03:59.646Z,95296.94
2019-02-04T18:06:36.579Z,95301.09
2019-02-04T18:09:13.481Z,95301.27
2019-02-04T18:11:52.977Z,95303.59
2019-02-04T18:14:31.792Z,95302.12
2019-02-04T18:17:10.443Z,95303.31
2019-02-04T18:19:53.458Z,95301.69
2019-02-04T18:22:31.186Z,95299.31
2019-02-04T18:25:08.705Z,95306.86
2019-02-04T18:27:49.031Z,95312.04
2019-02-04T18:30:27.642Z,95309.78
2019-02-04T18:33:06.117Z,95314.44
2019-02-04T18:35:50.344Z,95312.67
2019-02-04T18:38:29.046Z,95318.09
2019-02-04T18:41:08.868Z,95317.55
2019-02-04T18:43:48.617Z,95315.75
2019-02-04T18:46:50.145Z,95316.56
2019-02-04T18:49:29.842Z,95310.78
2019-02-04T18:52:09.570Z,95313.66
2019-02-04T18:54:50.414Z,95311.61
2019-02-04T18:57:31.829Z,95318.06
2019-02-04T19:00:09.257Z,95319.31
2019-02-04T19:02:50.981Z,95324.95
2019-02-04T19:05:29.814Z,95319.92
2019-02-04T19:08:08.552Z,95320.58
2019-02-04T19:10:48.649Z,95316.66
2019-02-04T19:13:35.778Z,95322.31
2019-02-04T19:16:12.130Z,95317.31
2019-02-04T19:18:53.205Z,95319.89
2019-02-04T19:21:38.334Z,95318.26
2019-02-04T19:24:18.243Z,95320.84
2019-02-04T19:27:05.349Z,95311.34
2019-02-04T19:29:44.175Z,95317.53
2019-02-04T19:32:26.708Z,95320.19
2019-02-04T19:35:06.106Z,95319.25
2019-02-04T19:37:49.160Z,95326.91
2019-02-04T19:40:32.694Z,95327.45
2019-02-04T19:43:09.529Z,95330.27
2019-02-04T19:45:48.917Z,95331.11
2019-02-04T19:48:25.934Z,95334.28
2019-02-04T19:51:03.441Z,95331.95
2019-02-04T19:53:43.615Z,95338.93
2019-02-04T19:56:21.519Z,95346.41
2019-02-04T19:59:01.788Z,95349.63
2019-02-04T20:01:44.964Z,95339.52
2019-02-04T20:04:23.984Z,95332.61
2019-02-04T20:07:02.987Z,95330.56
2019-02-04T20:09:42.992Z,95332.06
2019-02-04T20:12:20.047Z,95335.59
2019-02-04T20:15:00.478Z,95339.88
2019-02-04T20:17:38.018Z,95346.88
2019-02-04T20:20:16.316Z,95348.77
2019-02-04T20:23:04.811Z,95348.02
2019-02-04T20:25:47.107Z,95355.02
2019-02-04T20:28:25.340Z,95353.98
2019-02-04T20:31:00.584Z,95356.13
2019-02-04T20:33:37.222Z,95361.05
2019-02-04T20:36:17.255Z,95353.46
2019-02-04T20:38:57.632Z,95347.23
2019-02-04T20:41:38.801Z,95351.90
2019-02-04T20:44:15.324Z,95350.49
2019-02-04T20:46:56.479Z,95353.66
2019-02-04T20:49:33.802Z,95351.81
2019-02-04T20:52:16.221Z,95348.68
2019-02-04T20:54:56.514Z,95347.02
2019-02-04T20:57:39.725Z,95353.89
2019-02-04T21:00:20.394Z,95344.22
2019-02-04T21:03:03.968Z,95342.09
2019-02-04T21:05:40.799Z,95340.41
2019-02-04T21:08:20.373Z,95336.47
2019-02-04T21:11:01.021Z,95342.95
2019-02-04T21:13:48.660Z,95338.91
2019-02-04T21:16:29.184Z,95336.92
2019-02-04T21:19:14.009Z,95341.03
2019-02-04T21:21:53.515Z,95345.52
2019-02-04T21:24:34.056Z,95349.69
2019-02-04T21:27:12.428Z,95344.31
2019-02-04T21:30:08.410Z,95343.25
2019-02-04T21:32:47.144Z,95342.85
2019-02-04T21:35:23.654Z,95339.53
2019-02-04T21:38:01.367Z,95351.78
2019-02-04T21:40:41.970Z,95344.22
2019-02-04T21:43:20.696Z,95348.62
2019-02-04T21:45:58.039Z,95346.23
2019-02-04T21:48:39.340Z,95352.33
2019-02-04T21:51:15.888Z,95357.22
2019-02-04T21:53:48.744Z,95359.30
2019-02-04T21:56:21.706Z,95363.08
2019-02-04T21:58:55.362Z,95361.51
2019-02-04T22:01:28.475Z,95360.21
2019-02-04T22:04:01.922Z,95367.37
2019-02-04T22:06:35.511Z,95367.47
2019-02-04T22:09:11.355Z,95368.78
2019-02-04T22:11:44.274Z,95362.55
2019-02-04T22:14:17.528Z,95362.89
2019-02-04T22:16:50.458Z,95363.89
2019-02-04T22:19:23.489Z,95360.50
2019-02-04T22:21:56.603Z,95353.98
2019-02-04T22:24:29.929Z,95361.62
2019-02-04T22:27:02.864Z,95373.70
2019-02-04T22:29:35.838Z,95370.19
2019-02-04T22:32:09.100Z,95362.75
2019-02-04T22:34:45.547Z,95372.72
2019-02-04T22:37:17.355Z,95368.48
2019-02-04T22:39:50.252Z,95364.34
2019-02-04T22:42:23.391Z,95373.33
2019-02-04T22:44:58.134Z,95374.93
2019-02-04T22:47:31.189Z,95368.55
2019-02-04T22:50:05.063Z,95359.78
2019-02-04T22:52:38.379Z,95362.55
2019-02-04T22:55:11.902Z,95366.57
2019-02-04T22:57:44.863Z,95365.79
2019-02-04T23:00:59.093Z,95359.31
2019-02-04T23:03:32.231Z,95369.02
2019-02-04T23:06:05.992Z,95371.23
2019-02-04T23:08:38.887Z,95365.89
2019-02-04T23:11:12.146Z,95373.77
2019-02-04T23:13:45.040Z,95374.53
2019-02-04T23:16:18.001Z,95375.88
2019-02-04T23:18:50.952Z,95370.75
2019-02-04T23:21:24.066Z,95367.30
2019-02-04T23:23:58.676Z,95365.88
2019-02-04T23:26:31.681Z,95370.20
2019-02-04T23:29:05.524Z,95365.38
2019-02-04T23:31:38.680Z,95364.49
2019-02-04T23:34:11.776Z,95364.88
2019-02-04T23:36:44.959Z,95358.19
2019-02-04T23:39:17.833Z,95358.14
2019-02-04T23:41:50.844Z,95355.53
2019-02-04T23:44:23.803Z,95354.73
2019-02-04T23:46:57.064Z,95349.10
2019-02-04T23:49:30.979Z,95350.41
2019-02-04T23:52:05.161Z,95348.39
2019-02-04T23:54:38.322Z,95345.30
2019-02-04T23:57:11.667Z,95349.14
2019-02-04T23:59:45.019Z,95336.48
